Time;durP1;ratioP1;P1;durP2;ratioP2;P2;SDS_P1;SDS_P2;PMS_P1;PMS_P2;Temp;Humidity;BMP_temperature;BMP_pressure;BME280_temperature;BME280_humidity;BME280_pressure;Samples;Min_cycle;Max_cycle;Signal;HPM_P1;HPM_P2
2022/03/29 00:02:00;;;;;;;27.03;18.60;;;10.60;99.90;;;;;;5074553;28;20293;-67
2022/03/29 00:04:26;;;;;;;26.97;18.13;;;10.60;99.90;;;;;;5073564;28;20177;-67
2022/03/29 00:06:53;;;;;;;28.03;18.50;;;10.60;99.90;;;;;;5074262;28;20194;-66
2022/03/29 00:09:19;;;;;;;33.10;19.23;;;10.60;99.90;;;;;;5075022;28;20171;-67
2022/03/29 00:11:46;;;;;;;26.40;18.43;;;10.50;99.90;;;;;;5074383;28;20249;-67
2022/03/29 00:14:14;;;;;;;27.30;19.20;;;10.50;99.90;;;;;;5074622;28;20218;-66
2022/03/29 00:16:41;;;;;;;22.03;16.60;;;10.50;99.90;;;;;;5074043;28;20247;-67
2022/03/29 00:19:07;;;;;;;34.30;18.70;;;10.50;99.90;;;;;;5074554;28;20182;-66
2022/03/29 00:21:33;;;;;;;29.80;17.50;;;10.40;99.90;;;;;;5072815;28;20202;-66
2022/03/29 00:23:59;;;;;;;26.27;17.97;;;10.40;99.90;;;;;;5074245;28;20178;-66
2022/03/29 00:26:24;;;;;;;29.60;18.33;;;10.40;99.90;;;;;;5074122;28;20202;-66
2022/03/29 00:28:50;;;;;;;26.53;18.03;;;10.30;99.90;;;;;;5073285;28;20181;-66
2022/03/29 00:31:19;;;;;;;33.10;19.03;;;10.30;99.90;;;;;;5074365;28;20227;-67
2022/03/29 00:33:48;;;;;;;25.40;17.43;;;10.30;99.90;;;;;;5074286;28;20178;-66
2022/03/29 00:36:14;;;;;;;27.43;16.80;;;10.20;99.90;;;;;;5072344;28;20234;-67
2022/03/29 00:38:40;;;;;;;27.60;17.73;;;10.20;99.90;;;;;;5073171;28;20212;-67
2022/03/29 00:41:05;;;;;;;32.13;17.83;;;10.20;99.90;;;;;;5073959;28;20194;-65
2022/03/29 00:43:31;;;;;;;29.63;18.03;;;10.10;99.90;;;;;;5074214;28;20178;-66
2022/03/29 00:45:57;;;;;;;23.17;17.03;;;10.10;99.90;;;;;;5073484;28;20213;-66
2022/03/29 00:48:23;;;;;;;25.17;17.27;;;10.10;99.90;;;;;;5072784;28;20757;-66
2022/03/29 00:50:50;;;;;;;30.67;18.40;;;10.10;99.90;;;;;;5073879;28;20184;-66
2022/03/29 00:53:17;;;;;;;28.10;17.27;;;10.00;99.90;;;;;;5073354;28;20182;-65
2022/03/29 00:55:44;;;;;;;27.23;18.63;;;10.00;99.90;;;;;;5073665;28;20174;-66
2022/03/29 00:58:11;;;;;;;28.63;17.20;;;9.90;99.90;;;;;;5073609;28;20220;-66
2022/03/29 01:00:37;;;;;;;26.53;17.03;;;9.90;99.90;;;;;;5073884;28;20194;-65
2022/03/29 01:03:04;;;;;;;32.83;20.47;;;9.90;99.90;;;;;;5073410;28;20170;-65
2022/03/29 01:05:31;;;;;;;30.03;18.33;;;9.80;99.90;;;;;;5073471;28;20556;-66
2022/03/29 01:07:57;;;;;;;32.20;17.37;;;9.80;99.90;;;;;;5073175;28;20190;-66
2022/03/29 01:10:24;;;;;;;23.83;16.87;;;9.80;99.90;;;;;;5073541;28;20437;-66
2022/03/29 01:12:50;;;;;;;30.57;18.07;;;9.80;99.90;;;;;;5072103;28;20713;-66
2022/03/29 01:15:16;;;;;;;30.30;18.47;;;9.80;99.90;;;;;;5071959;28;20174;-65
2022/03/29 01:17:43;;;;;;;29.10;17.17;;;9.80;99.90;;;;;;5073039;28;20619;-66
2022/03/29 01:20:20;;;;;;;28.47;17.77;;;9.80;99.90;;;;;;5073243;28;20181;-66
2022/03/29 01:22:48;;;;;;;30.67;18.00;;;9.80;99.90;;;;;;5053565;28;20167;-66
2022/03/29 01:25:49;;;;;;;27.90;17.17;;;9.80;99.90;;;;;;5052998;28;20715;-67
2022/03/29 01:28:16;;;;;;;26.93;16.27;;;9.90;99.90;;;;;;5063891;28;20183;-67
2022/03/29 01:30:43;;;;;;;28.87;18.27;;;9.80;99.90;;;;;;5056117;28;20182;-66
2022/03/29 01:33:10;;;;;;;27.40;17.30;;;9.80;99.90;;;;;;5071836;28;20228;-66
2022/03/29 01:35:36;;;;;;;27.90;17.07;;;9.80;99.90;;;;;;5071244;28;20178;-66
2022/03/29 01:38:02;;;;;;;24.43;16.17;;;9.80;99.90;;;;;;5073023;28;20197;-66
2022/03/29 01:40:28;;;;;;;24.90;18.47;;;9.80;99.90;;;;;;5072471;28;20213;-67
2022/03/29 01:42:56;;;;;;;32.13;20.43;;;9.90;99.90;;;;;;5073025;28;20170;-65
2022/03/29 01:45:27;;;;;;;29.40;17.83;;;9.90;99.90;;;;;;5071168;28;20198;-66
2022/03/29 01:47:52;;;;;;;23.87;17.77;;;9.90;99.90;;;;;;5072654;28;20189;-66
2022/03/29 01:50:19;;;;;;;30.23;17.63;;;9.90;99.90;;;;;;5072979;28;20166;-65
2022/03/29 01:52:46;;;;;;;25.90;17.23;;;9.90;99.90;;;;;;5072438;28;20166;-66
2022/03/29 01:55:13;;;;;;;26.27;17.30;;;9.90;99.90;;;;;;5071490;28;20182;-66
2022/03/29 01:57:39;;;;;;;23.97;16.53;;;10.00;99.90;;;;;;5070715;28;20213;-66
2022/03/29 02:02:52;;;;;;;28.80;18.47;;;10.00;99.90;;;;;;5071570;28;20197;-66
2022/03/29 02:05:18;;;;;;;22.83;17.47;;;10.00;99.90;;;;;;5071463;28;20174;-66
2022/03/29 02:07:44;;;;;;;26.27;17.33;;;10.00;99.90;;;;;;5071051;28;20296;-66
2022/03/29 02:10:14;;;;;;;25.47;17.07;;;10.00;99.90;;;;;;5071041;28;20590;-66
2022/03/29 02:12:40;;;;;;;23.00;16.17;;;10.00;99.90;;;;;;5072253;28;20201;-66
2022/03/29 02:15:06;;;;;;;24.63;17.23;;;10.10;99.90;;;;;;5072068;28;20171;-66
2022/03/29 02:17:32;;;;;;;31.17;19.23;;;10.00;99.90;;;;;;5070735;28;20192;-66
2022/03/29 02:19:58;;;;;;;27.57;19.63;;;10.00;99.90;;;;;;5072092;28;20190;-66
2022/03/29 02:22:23;;;;;;;33.97;18.23;;;10.00;99.90;;;;;;5070266;28;20331;-66
2022/03/29 02:24:49;;;;;;;21.73;16.70;;;10.00;99.90;;;;;;5071823;28;20178;-66
2022/03/29 02:27:14;;;;;;;31.53;17.20;;;10.10;99.90;;;;;;5070225;28;20710;-66
2022/03/29 02:29:40;;;;;;;27.70;17.63;;;10.10;99.90;;;;;;5071134;28;20198;-66
2022/03/29 02:32:06;;;;;;;25.07;17.87;;;10.10;99.90;;;;;;5071080;28;20639;-66
2022/03/29 02:34:32;;;;;;;28.83;17.83;;;10.10;99.90;;;;;;5070382;28;20217;-66
2022/03/29 02:36:58;;;;;;;26.00;17.57;;;10.20;99.90;;;;;;5071559;28;20213;-66
2022/03/29 02:39:23;;;;;;;28.13;17.63;;;10.20;99.90;;;;;;5071955;28;20174;-66
2022/03/29 02:41:50;;;;;;;32.33;17.93;;;10.30;99.90;;;;;;5070303;28;20609;-66
2022/03/29 02:44:15;;;;;;;25.70;16.97;;;10.30;99.90;;;;;;5070493;28;20201;-66
2022/03/29 02:46:41;;;;;;;25.70;17.97;;;10.20;99.90;;;;;;5071295;28;20291;-66
2022/03/29 02:49:07;;;;;;;28.00;18.30;;;10.20;99.90;;;;;;5071764;28;20561;-66
2022/03/29 02:51:33;;;;;;;26.57;17.93;;;10.30;99.90;;;;;;5070248;28;20662;-66
2022/03/29 02:53:59;;;;;;;27.03;17.63;;;10.30;99.90;;;;;;5071514;28;20170;-66
2022/03/29 02:56:25;;;;;;;23.60;17.33;;;10.30;99.90;;;;;;5071218;28;20277;-66
2022/03/29 02:58:50;;;;;;;27.87;18.80;;;10.30;99.90;;;;;;5071801;28;20212;-66
2022/03/29 03:01:16;;;;;;;23.97;17.07;;;10.30;99.90;;;;;;5071124;28;20190;-66
2022/03/29 03:03:41;;;;;;;26.47;18.10;;;10.20;99.90;;;;;;5071652;28;20273;-66
2022/03/29 03:06:07;;;;;;;24.73;16.43;;;10.30;99.90;;;;;;5069678;28;20197;-66
2022/03/29 03:08:32;;;;;;;25.43;17.87;;;10.30;99.90;;;;;;5071580;28;20586;-66
2022/03/29 03:10:58;;;;;;;26.63;17.27;;;10.30;99.90;;;;;;5070148;28;20177;-66
2022/03/29 03:13:24;;;;;;;29.03;17.53;;;10.20;99.90;;;;;;5070399;28;20170;-66
2022/03/29 03:15:49;;;;;;;28.80;18.13;;;10.20;99.90;;;;;;5069381;28;20185;-66
2022/03/29 03:18:15;;;;;;;28.00;18.80;;;10.20;99.90;;;;;;5071371;28;20196;-66
2022/03/29 03:20:41;;;;;;;33.70;19.83;;;10.20;99.90;;;;;;5071188;28;20212;-66
2022/03/29 03:23:07;;;;;;;26.77;18.23;;;10.20;99.90;;;;;;5070133;28;20166;-66
2022/03/29 03:25:33;;;;;;;27.10;18.90;;;10.20;99.90;;;;;;5070840;28;20200;-66
2022/03/29 03:27:58;;;;;;;26.10;18.53;;;10.20;99.90;;;;;;5071337;28;20282;-66
2022/03/29 03:30:24;;;;;;;26.03;18.97;;;10.20;99.90;;;;;;5071349;28;20265;-66
2022/03/29 03:32:50;;;;;;;24.63;17.33;;;10.20;99.90;;;;;;5074460;28;20208;-66
2022/03/29 03:35:15;;;;;;;27.77;19.60;;;10.20;99.90;;;;;;5087752;28;20567;-66
2022/03/29 03:37:41;;;;;;;28.53;18.83;;;10.20;99.90;;;;;;5083367;28;20261;-66
2022/03/29 03:40:09;;;;;;;29.70;18.63;;;10.10;99.90;;;;;;5071229;28;20561;-66
2022/03/29 03:42:37;;;;;;;30.87;18.43;;;10.20;99.90;;;;;;5071497;28;20173;-66
2022/03/29 03:45:04;;;;;;;25.87;18.60;;;10.10;99.90;;;;;;5070609;28;20180;-66
2022/03/29 03:47:30;;;;;;;37.37;19.67;;;10.10;99.90;;;;;;5071500;28;20200;-66
2022/03/29 03:49:56;;;;;;;24.93;19.30;;;10.10;99.90;;;;;;5070908;28;20178;-66
2022/03/29 03:52:22;;;;;;;29.93;18.57;;;10.10;99.90;;;;;;5071349;28;20178;-66
2022/03/29 03:54:48;;;;;;;25.33;19.30;;;10.10;99.90;;;;;;5070925;28;20553;-67
2022/03/29 03:57:13;;;;;;;26.00;17.90;;;10.10;99.90;;;;;;5071181;28;20202;-66
2022/03/29 03:59:39;;;;;;;30.67;18.27;;;10.00;99.90;;;;;;5069574;28;20632;-67
2022/03/29 04:02:05;;;;;;;26.57;17.93;;;10.00;99.90;;;;;;5069145;28;20236;-67
2022/03/29 04:04:30;;;;;;;26.93;18.33;;;9.90;99.90;;;;;;5070740;28;20646;-67
2022/03/29 04:06:56;;;;;;;23.40;18.07;;;9.90;99.90;;;;;;5070572;28;20197;-67
2022/03/29 04:09:22;;;;;;;29.27;19.27;;;9.90;99.90;;;;;;5071112;28;20181;-67
2022/03/29 04:11:48;;;;;;;27.23;19.33;;;9.90;99.90;;;;;;5070785;28;20268;-66
2022/03/29 04:14:14;;;;;;;28.50;18.53;;;9.90;99.90;;;;;;5070969;28;20220;-67
2022/03/29 04:16:40;;;;;;;27.70;18.77;;;9.90;99.90;;;;;;5070582;28;20573;-67
2022/03/29 04:19:06;;;;;;;28.57;18.90;;;9.80;99.90;;;;;;5071133;28;20268;-66
2022/03/29 04:21:32;;;;;;;34.63;21.27;;;9.80;99.90;;;;;;5070602;28;20211;-67
2022/03/29 04:23:57;;;;;;;30.40;19.77;;;9.80;99.90;;;;;;5070726;28;20428;-67
2022/03/29 04:26:23;;;;;;;27.83;20.97;;;9.70;99.90;;;;;;5070463;28;20190;-67
2022/03/29 04:28:49;;;;;;;30.10;21.57;;;9.70;99.90;;;;;;5071275;28;20605;-66
2022/03/29 04:31:14;;;;;;;30.93;18.97;;;9.70;99.90;;;;;;5074104;28;20244;-65
2022/03/29 04:33:40;;;;;;;35.77;21.20;;;9.60;99.90;;;;;;5073122;28;20280;-67
2022/03/29 04:36:06;;;;;;;28.30;19.87;;;9.50;99.90;;;;;;5073600;28;20197;-66
2022/03/29 04:38:32;;;;;;;30.23;20.43;;;9.50;99.90;;;;;;5074312;28;20217;-67
2022/03/29 04:40:58;;;;;;;27.80;19.07;;;9.50;99.90;;;;;;5073994;28;20193;-67
2022/03/29 04:43:24;;;;;;;27.23;19.80;;;9.40;99.90;;;;;;5073038;28;20643;-67
2022/03/29 04:45:50;;;;;;;33.97;19.47;;;9.40;99.90;;;;;;5072332;28;20173;-67
2022/03/29 04:48:15;;;;;;;32.07;20.37;;;9.40;99.90;;;;;;5074273;28;20186;-67
2022/03/29 04:50:41;;;;;;;31.27;20.73;;;9.40;99.90;;;;;;5073922;28;20198;-67
2022/03/29 04:53:10;;;;;;;35.70;20.97;;;9.30;99.90;;;;;;5073998;28;20315;-66
2022/03/29 04:55:36;;;;;;;30.77;21.10;;;9.30;99.90;;;;;;5072410;28;20170;-66
2022/03/29 04:58:02;;;;;;;24.87;18.73;;;9.20;99.90;;;;;;5073332;28;20213;-66
2022/03/29 05:00:28;;;;;;;33.00;21.10;;;9.20;99.90;;;;;;5072770;28;20206;-66
2022/03/29 05:02:53;;;;;;;23.63;18.93;;;9.20;99.90;;;;;;5072515;28;20205;-66
2022/03/29 05:05:19;;;;;;;31.63;22.17;;;9.20;99.90;;;;;;5072118;28;20903;-66
2022/03/29 05:07:46;;;;;;;32.97;21.30;;;9.30;99.90;;;;;;5072108;28;20564;-67
2022/03/29 05:10:12;;;;;;;33.70;20.60;;;9.20;99.90;;;;;;5073487;28;20655;-66
2022/03/29 05:12:45;;;;;;;29.57;20.80;;;9.30;99.90;;;;;;5073711;28;20265;-65
2022/03/29 05:15:13;;;;;;;28.17;19.07;;;9.20;99.90;;;;;;5072030;28;20530;-67
2022/03/29 05:17:39;;;;;;;28.93;19.50;;;9.20;99.90;;;;;;5073500;28;20197;-66
2022/03/29 05:20:07;;;;;;;30.83;21.13;;;9.20;99.90;;;;;;5071706;28;20277;-67
2022/03/29 05:22:40;;;;;;;33.17;20.57;;;9.10;99.90;;;;;;5072356;28;20210;-66
2022/03/29 05:25:06;;;;;;;27.37;19.80;;;9.10;99.90;;;;;;5072895;28;20228;-66
2022/03/29 05:27:31;;;;;;;32.13;21.20;;;9.10;99.90;;;;;;5071582;28;20659;-67
2022/03/29 05:29:57;;;;;;;33.87;21.27;;;9.10;99.90;;;;;;5073301;28;20648;-66
2022/03/29 05:32:23;;;;;;;33.33;22.00;;;9.10;99.90;;;;;;5073134;28;20209;-67
2022/03/29 05:34:48;;;;;;;31.60;21.13;;;9.10;99.90;;;;;;5071568;28;20182;-65
2022/03/29 05:37:14;;;;;;;29.80;21.60;;;9.10;99.90;;;;;;5071990;28;20288;-67
2022/03/29 05:39:41;;;;;;;34.90;22.20;;;9.00;99.90;;;;;;5071988;28;20385;-66
2022/03/29 05:42:08;;;;;;;35.80;23.07;;;9.00;99.90;;;;;;5072802;28;20203;-66
2022/03/29 05:44:33;;;;;;;34.37;22.43;;;9.10;99.90;;;;;;5071361;28;20212;-66
2022/03/29 05:49:43;;;;;;;31.23;21.53;;;9.20;99.90;;;;;;5072567;28;20587;-66
2022/03/29 05:52:08;;;;;;;30.10;20.67;;;9.30;99.90;;;;;;5071239;28;20178;-65
2022/03/29 05:54:35;;;;;;;29.30;21.73;;;9.30;99.90;;;;;;5072667;28;20170;-67
2022/03/29 05:57:01;;;;;;;34.13;22.43;;;9.30;99.90;;;;;;5072280;28;20251;-66
2022/03/29 05:59:26;;;;;;;32.90;21.37;;;9.30;99.90;;;;;;5072745;28;20632;-67
2022/03/29 06:01:52;;;;;;;29.60;21.03;;;9.40;99.90;;;;;;5071017;28;20209;-67
2022/03/29 06:04:22;;;;;;;30.27;20.57;;;9.40;99.90;;;;;;5072642;28;20177;-67
2022/03/29 06:06:49;;;;;;;31.40;21.17;;;9.50;99.90;;;;;;5070776;28;20209;-67
2022/03/29 06:09:14;;;;;;;31.60;22.63;;;9.60;99.90;;;;;;5071955;28;20189;-63
2022/03/29 06:11:40;;;;;;;28.43;20.13;;;9.60;99.90;;;;;;5081871;28;20190;-66
2022/03/29 06:14:05;;;;;;;29.43;22.20;;;9.70;99.90;;;;;;5070120;28;20178;-66
2022/03/29 06:16:31;;;;;;;29.27;21.57;;;9.70;99.90;;;;;;5070318;28;20206;-66
2022/03/29 06:18:57;;;;;;;26.10;21.37;;;9.70;99.90;;;;;;5072264;28;20188;-65
2022/03/29 06:21:24;;;;;;;33.17;21.40;;;9.70;99.90;;;;;;5071753;28;20210;-66
2022/03/29 06:23:50;;;;;;;34.33;20.87;;;9.70;99.90;;;;;;5104705;28;20223;-65
2022/03/29 06:26:18;;;;;;;39.07;22.07;;;9.70;99.90;;;;;;5071165;28;20784;-65
2022/03/29 06:28:43;;;;;;;30.40;21.20;;;9.80;99.90;;;;;;5070751;28;20197;-66
2022/03/29 06:31:09;;;;;;;27.33;22.27;;;9.90;99.90;;;;;;5071810;28;20567;-66
2022/03/29 06:33:35;;;;;;;28.33;22.67;;;10.10;99.90;;;;;;5104181;28;20186;-66
2022/03/29 06:36:01;;;;;;;30.43;23.83;;;10.30;99.90;;;;;;5070115;28;20179;-65
2022/03/29 06:38:31;;;;;;;31.20;22.00;;;10.40;99.90;;;;;;5070401;28;20216;-66
2022/03/29 06:40:58;;;;;;;27.00;21.80;;;10.60;99.90;;;;;;5069877;28;20197;-65
2022/03/29 06:43:23;;;;;;;34.77;22.30;;;10.60;99.90;;;;;;5071344;28;20204;-65
2022/03/29 06:45:49;;;;;;;34.47;22.83;;;10.70;99.90;;;;;;5071304;28;20174;-65
2022/03/29 06:48:15;;;;;;;35.97;22.90;;;10.80;99.90;;;;;;5070601;28;20666;-66
2022/03/29 06:50:41;;;;;;;31.20;21.00;;;10.90;99.90;;;;;;5071214;28;20592;-66
2022/03/29 06:53:06;;;;;;;28.63;21.53;;;10.90;99.90;;;;;;5069954;28;20186;-66
2022/03/29 06:55:32;;;;;;;35.33;22.13;;;11.00;99.90;;;;;;5070026;28;20690;-65
2022/03/29 06:57:59;;;;;;;31.13;22.57;;;11.00;99.90;;;;;;5069322;28;20247;-66
2022/03/29 07:00:25;;;;;;;28.03;20.80;;;11.10;99.90;;;;;;5070934;28;20217;-65
2022/03/29 07:02:51;;;;;;;28.47;22.63;;;11.10;99.90;;;;;;5071586;28;20645;-65
2022/03/29 07:05:16;;;;;;;35.93;22.90;;;11.10;99.90;;;;;;5070745;28;20166;-65
2022/03/29 07:07:42;;;;;;;28.63;20.37;;;11.20;99.90;;;;;;5069336;28;20194;-64
2022/03/29 07:12:58;;;;;;;27.93;21.93;;;11.40;99.90;;;;;;5071674;28;20560;-64
2022/03/29 07:15:25;;;;;;;34.60;22.73;;;11.60;99.90;;;;;;5070123;28;20186;-65
2022/03/29 07:17:51;;;;;;;32.53;21.93;;;11.70;99.90;;;;;;5069765;28;20225;-67
2022/03/29 07:20:19;;;;;;;33.67;22.13;;;11.70;99.90;;;;;;5070227;28;20197;-66
2022/03/29 07:22:45;;;;;;;31.33;21.67;;;11.60;99.90;;;;;;5071009;28;20182;-65
2022/03/29 07:25:11;;;;;;;33.00;21.30;;;11.60;99.90;;;;;;5071059;28;20170;-67
2022/03/29 07:27:37;;;;;;;29.73;20.83;;;11.70;99.90;;;;;;5074217;28;20221;-67
2022/03/29 07:30:04;;;;;;;30.60;21.40;;;11.90;99.90;;;;;;5071189;28;20178;-65
2022/03/29 07:32:30;;;;;;;30.83;21.40;;;11.90;99.90;;;;;;5071311;28;20182;-65
2022/03/29 07:34:56;;;;;;;29.30;21.33;;;11.90;99.90;;;;;;5069552;28;20185;-66
2022/03/29 07:37:23;;;;;;;31.13;21.30;;;12.00;99.90;;;;;;5070530;28;20697;-66
2022/03/29 07:39:53;;;;;;;32.33;22.07;;;12.00;99.90;;;;;;5069623;28;20188;-65
2022/03/29 07:42:22;;;;;;;33.90;22.10;;;12.10;99.90;;;;;;5070690;28;20586;-65
2022/03/29 07:44:50;;;;;;;31.33;21.27;;;12.00;99.90;;;;;;5070538;28;20262;-66
2022/03/29 07:47:17;;;;;;;29.67;21.43;;;12.00;99.90;;;;;;5070892;28;20182;-65
2022/03/29 07:49:43;;;;;;;31.27;22.60;;;12.10;99.90;;;;;;5069289;28;20178;-66
2022/03/29 07:52:09;;;;;;;30.97;21.33;;;12.30;99.90;;;;;;5071302;28;20181;-66
2022/03/29 07:54:34;;;;;;;27.30;20.60;;;12.60;99.90;;;;;;5070469;28;20615;-66
2022/03/29 07:57:01;;;;;;;25.70;18.70;;;12.90;99.90;;;;;;5068151;28;20742;-65
2022/03/29 07:59:27;;;;;;;24.93;19.90;;;13.20;99.90;;;;;;5070130;28;20181;-66
2022/03/29 08:01:54;;;;;;;27.90;20.77;;;13.50;99.90;;;;;;5070542;28;20201;-65
2022/03/29 08:04:19;;;;;;;30.20;19.57;;;13.90;99.90;;;;;;5073383;28;20174;-66
2022/03/29 08:06:45;;;;;;;25.40;19.27;;;14.30;99.90;;;;;;5073192;28;20194;-65
2022/03/29 08:09:10;;;;;;;25.60;19.70;;;14.80;99.90;;;;;;5073861;28;20182;-65
2022/03/29 08:11:36;;;;;;;32.50;21.30;;;14.90;99.90;;;;;;5073631;28;20655;-64
2022/03/29 08:14:02;;;;;;;28.67;21.40;;;14.90;99.90;;;;;;5072824;28;20255;-65
2022/03/29 08:16:28;;;;;;;32.83;20.77;;;15.00;99.90;;;;;;5073712;28;20575;-65
2022/03/29 08:18:55;;;;;;;30.83;19.00;;;15.20;99.90;;;;;;5074270;28;20182;-66
2022/03/29 08:22:03;;;;;;;26.07;20.00;;;15.10;99.90;;;;;;5074025;28;20210;-65
2022/03/29 08:24:09;;;;;;;26.80;19.80;;;15.00;99.90;;;;;;5065018;28;20666;-66
2022/03/29 08:26:35;;;;;;;31.70;21.27;;;14.90;99.90;;;;;;5073971;28;20255;-66
2022/03/29 08:29:01;;;;;;;30.30;21.27;;;14.80;99.90;;;;;;5074000;28;20174;-66
2022/03/29 08:31:26;;;;;;;30.50;20.73;;;14.70;99.90;;;;;;5074354;28;20186;-65
2022/03/29 08:33:52;;;;;;;31.27;20.53;;;14.80;99.90;;;;;;5086975;28;20181;-64
2022/03/29 08:36:17;;;;;;;30.63;21.40;;;14.90;99.90;;;;;;5094077;28;20197;-66
2022/03/29 08:38:44;;;;;;;29.00;21.53;;;15.10;99.90;;;;;;5093145;28;20173;-65
2022/03/29 08:41:10;;;;;;;26.67;19.97;;;15.40;99.90;;;;;;5094202;28;20209;-66
2022/03/29 08:43:35;;;;;;;24.00;19.10;;;15.60;99.90;;;;;;5092842;28;20173;-66
2022/03/29 08:46:01;;;;;;;28.97;20.13;;;15.90;99.90;;;;;;5093492;28;20169;-66
2022/03/29 08:48:28;;;;;;;27.97;19.60;;;16.30;99.90;;;;;;5093937;28;20268;-66
2022/03/29 08:50:58;;;;;;;28.33;20.87;;;16.70;99.90;;;;;;5094077;28;20587;-66
2022/03/29 08:53:24;;;;;;;30.03;20.37;;;17.00;99.90;;;;;;5094057;28;20196;-65
2022/03/29 08:55:50;;;;;;;25.67;20.27;;;17.00;99.90;;;;;;5093695;28;20532;-66
2022/03/29 08:58:17;;;;;;;24.53;20.07;;;17.10;99.90;;;;;;5092420;28;20181;-66
2022/03/29 09:00:45;;;;;;;28.80;18.90;;;17.30;99.90;;;;;;5094146;28;20222;-66
2022/03/29 09:03:14;;;;;;;23.53;18.53;;;17.10;99.90;;;;;;5093930;28;20166;-66
2022/03/29 09:05:39;;;;;;;29.73;19.93;;;17.00;99.90;;;;;;5074359;28;20823;-66
2022/03/29 09:08:08;;;;;;;28.93;20.00;;;16.80;99.90;;;;;;5073308;28;20186;-66
2022/03/29 09:10:53;;;;;;;29.10;20.10;;;16.50;99.90;;;;;;5072211;28;20177;-66
2022/03/29 09:13:27;;;;;;;24.20;20.07;;;15.80;99.90;;;;;;5072226;28;20213;-66
2022/03/29 09:15:55;;;;;;;29.47;20.77;;;15.80;99.90;;;;;;5071753;28;20167;-66
2022/03/29 09:18:22;;;;;;;34.27;21.03;;;16.10;99.90;;;;;;5073442;28;20240;-66
2022/03/29 09:21:09;;;;;;;25.63;19.53;;;16.30;99.90;;;;;;5073268;28;20756;-66
2022/03/29 09:23:35;;;;;;;25.30;19.77;;;16.30;99.90;;;;;;5071585;28;20174;-66
2022/03/29 09:26:02;;;;;;;24.07;19.50;;;16.30;99.90;;;;;;5072688;28;20162;-66
2022/03/29 09:28:38;;;;;;;23.97;20.30;;;16.60;99.90;;;;;;5071967;28;20170;-66
2022/03/29 09:31:22;;;;;;;28.87;20.17;;;16.90;99.90;;;;;;5073102;28;20174;-66
2022/03/29 09:33:48;;;;;;;27.40;20.03;;;16.90;99.90;;;;;;5072431;28;20678;-65
2022/03/29 09:36:20;;;;;;;25.27;18.50;;;16.70;99.90;;;;;;5077658;28;20205;-65
2022/03/29 09:38:47;;;;;;;30.97;20.53;;;16.60;99.90;;;;;;5092197;28;20192;-66
2022/03/29 09:41:32;;;;;;;25.43;19.03;;;16.50;99.90;;;;;;5093296;28;20197;-66
2022/03/29 09:44:11;;;;;;;26.33;19.97;;;16.40;99.90;;;;;;5091712;28;20169;-65
2022/03/29 09:46:59;;;;;;;25.40;19.30;;;16.40;99.90;;;;;;5092818;28;20193;-65
2022/03/29 09:49:26;;;;;;;22.00;18.10;;;16.40;99.90;;;;;;5093271;28;20585;-65
2022/03/29 09:52:15;;;;;;;22.93;19.07;;;16.60;99.90;;;;;;5093085;28;20166;-66
2022/03/29 09:54:42;;;;;;;23.40;19.90;;;16.70;99.90;;;;;;5093143;28;20170;-65
2022/03/29 09:57:09;;;;;;;24.60;19.53;;;16.60;99.90;;;;;;5092774;28;20276;-65
2022/03/29 09:59:48;;;;;;;24.73;18.13;;;16.50;99.90;;;;;;5093094;28;20256;-65
2022/03/29 10:02:14;;;;;;;25.70;19.07;;;16.50;99.90;;;;;;5092573;28;20201;-66
2022/03/29 10:04:41;;;;;;;26.13;19.43;;;16.50;99.90;;;;;;5092828;28;20181;-66
2022/03/29 10:07:10;;;;;;;26.67;18.33;;;16.50;99.90;;;;;;5086964;28;20397;-66
2022/03/29 10:09:38;;;;;;;23.37;18.13;;;16.90;99.90;;;;;;5072580;28;20177;-67
2022/03/29 10:12:09;;;;;;;21.93;18.13;;;17.30;99.90;;;;;;5071277;28;20260;-65
2022/03/29 10:14:36;;;;;;;26.67;18.47;;;17.90;99.90;;;;;;5070999;28;20584;-66
2022/03/29 10:17:03;;;;;;;25.40;18.30;;;18.30;99.90;;;;;;5072040;28;20241;-65
2022/03/29 10:19:29;;;;;;;22.23;17.57;;;18.60;99.90;;;;;;5072592;28;20174;-66
2022/03/29 10:21:58;;;;;;;20.33;17.53;;;18.50;99.90;;;;;;5070085;28;20244;-66
2022/03/29 10:24:25;;;;;;;21.90;18.23;;;18.70;99.90;;;;;;5072112;28;20170;-66
2022/03/29 10:26:53;;;;;;;24.37;17.90;;;19.00;99.90;;;;;;5071353;28;20193;-65
2022/03/29 10:29:19;;;;;;;20.43;17.50;;;19.30;99.90;;;;;;5070751;28;20177;-67
2022/03/29 10:31:52;;;;;;;18.60;16.43;;;19.50;99.90;;;;;;5072101;28;20162;-66
2022/03/29 10:34:20;;;;;;;20.35;16.23;;;19.80;99.90;;;;;;5071698;28;20181;-66
2022/03/29 10:36:59;;;;;;;19.08;16.08;;;20.40;99.90;;;;;;5071723;28;20202;-66
2022/03/29 10:39:38;;;;;;;22.45;16.88;;;20.60;99.90;;;;;;5080607;28;20319;-66
2022/03/29 10:42:22;;;;;;;20.08;17.67;;;20.60;99.90;;;;;;5091907;28;20486;-66
2022/03/29 10:45:03;;;;;;;23.27;17.35;;;20.70;99.90;;;;;;5090585;28;20177;-65
2022/03/29 10:47:30;;;;;;;18.65;16.27;;;20.90;99.90;;;;;;5092097;28;20189;-67
2022/03/29 10:49:56;;;;;;;17.67;15.60;;;21.00;99.90;;;;;;5091893;28;20731;-66
2022/03/29 10:52:21;;;;;;;21.92;16.90;;;20.90;99.90;;;;;;5092130;28;20177;-66
2022/03/29 10:54:48;;;;;;;22.50;15.02;;;21.00;99.90;;;;;;5084807;28;20193;-66
2022/03/29 10:57:24;;;;;;;18.27;15.88;;;21.10;99.90;;;;;;5071360;28;20202;-65
2022/03/29 11:00:17;;;;;;;20.13;16.42;;;21.20;99.90;;;;;;5071357;28;20178;-65
2022/03/29 11:03:11;;;;;;;18.92;16.58;;;21.50;99.90;;;;;;5051278;28;20731;-66
2022/03/29 11:06:06;;;;;;;17.77;15.18;;;21.70;99.90;;;;;;5049872;28;20278;-67
2022/03/29 11:08:36;;;;;;;19.05;15.73;;;22.20;99.60;;;;;;5050792;28;20644;-66
2022/03/29 11:11:03;;;;;;;17.58;15.05;;;22.50;99.10;;;;;;5064698;28;20208;-66
2022/03/29 11:13:34;;;;;;;17.55;15.18;;;22.90;97.50;;;;;;5085221;28;20577;-67
2022/03/29 11:16:20;;;;;;;16.65;14.40;;;22.60;97.00;;;;;;5076705;28;20192;-66
2022/03/29 11:18:45;;;;;;;16.55;14.80;;;22.90;95.50;;;;;;5071222;28;20174;-67
2022/03/29 11:21:31;;;;;;;15.80;13.27;;;23.00;96.00;;;;;;5070443;28;20733;-67
2022/03/29 11:24:00;;;;;;;16.17;12.95;;;23.00;95.10;;;;;;5071177;28;20670;-66
2022/03/29 11:26:26;;;;;;;16.73;13.35;;;22.90;93.70;;;;;;5070457;28;20198;-66
2022/03/29 11:28:54;;;;;;;17.90;12.73;;;23.00;95.90;;;;;;5071054;28;20219;-66
2022/03/29 11:31:22;;;;;;;13.65;12.25;;;23.40;95.60;;;;;;5071133;28;20733;-66
2022/03/29 11:33:51;;;;;;;13.18;11.77;;;23.40;93.80;;;;;;5071151;28;20182;-66
2022/03/29 11:36:20;;;;;;;15.30;12.32;;;23.00;91.50;;;;;;5070958;28;20707;-66
2022/03/29 11:38:47;;;;;;;11.95;10.73;;;22.80;91.10;;;;;;5073528;28;20182;-66
2022/03/29 11:41:24;;;;;;;13.15;11.75;;;22.50;91.60;;;;;;5075100;28;20293;-66
2022/03/29 11:44:01;;;;;;;13.80;12.40;;;22.10;90.40;;;;;;5074944;28;20172;-66
2022/03/29 11:46:49;;;;;;;13.55;12.15;;;21.50;92.50;;;;;;5074971;28;20190;-65
2022/03/29 11:49:19;;;;;;;14.07;12.68;;;21.40;94.00;;;;;;5074742;28;20174;-66
2022/03/29 11:52:04;;;;;;;13.55;12.07;;;20.80;93.70;;;;;;5074017;28;20174;-66
2022/03/29 11:54:30;;;;;;;14.47;12.60;;;20.20;95.30;;;;;;5074417;28;20186;-66
2022/03/29 11:56:56;;;;;;;15.67;13.00;;;19.90;95.40;;;;;;5074853;28;20209;-65
2022/03/29 11:59:21;;;;;;;15.50;13.80;;;19.80;96.40;;;;;;5074633;28;20193;-65
2022/03/29 12:01:47;;;;;;;27.87;21.80;;;19.70;96.10;;;;;;5074816;28;20607;-65
2022/03/29 12:04:13;;;;;;;31.90;25.40;;;19.30;99.90;;;;;;5074305;28;20174;-66
2022/03/29 12:06:50;;;;;;;39.00;28.70;;;19.00;99.90;;;;;;5074356;28;20182;-66
2022/03/29 12:09:23;;;;;;;38.80;28.00;;;18.50;99.90;;;;;;5074673;28;20162;-65
2022/03/29 12:11:53;;;;;;;45.93;28.40;;;18.30;99.90;;;;;;5074718;28;20166;-66
2022/03/29 12:14:21;;;;;;;41.70;30.97;;;17.80;99.90;;;;;;5074192;28;20210;-66
2022/03/29 12:16:49;;;;;;;41.87;30.37;;;17.60;99.90;;;;;;5074258;28;20198;-65
2022/03/29 12:19:17;;;;;;;43.20;28.13;;;17.50;99.90;;;;;;5074113;28;20265;-66
2022/03/29 12:21:46;;;;;;;47.67;32.57;;;17.50;99.90;;;;;;5074313;28;20255;-66
2022/03/29 12:24:13;;;;;;;46.63;31.77;;;17.20;99.90;;;;;;5074205;28;20166;-66
2022/03/29 12:26:50;;;;;;;44.50;30.50;;;17.10;99.90;;;;;;5073976;28;20273;-65
2022/03/29 12:29:20;;;;;;;44.90;31.13;;;16.90;99.90;;;;;;5071445;28;20178;-65
2022/03/29 12:31:47;;;;;;;47.23;33.23;;;16.70;99.90;;;;;;5073363;28;20236;-66
2022/03/29 12:34:14;;;;;;;43.40;30.47;;;16.60;99.90;;;;;;5072698;28;20269;-66
2022/03/29 12:36:50;;;;;;;48.43;31.97;;;16.60;99.90;;;;;;5073888;28;20198;-65
2022/03/29 12:39:16;;;;;;;48.50;31.60;;;16.50;99.90;;;;;;5074090;28;20174;-65
2022/03/29 12:41:51;;;;;;;54.07;32.60;;;16.50;99.90;;;;;;5072920;28;20255;-66
2022/03/29 12:44:27;;;;;;;44.23;32.60;;;16.60;99.90;;;;;;5073792;28;20174;-66